Time;durP1;ratioP1;P1;durP2;ratioP2;P2;SDS_P1;SDS_P2;PMS_P1;PMS_P2;Temp;Humidity;BMP_temperature;BMP_pressure;BME280_temperature;BME280_humidity;BME280_pressure;Samples;Min_cycle;Max_cycle;Signal;HPM_P1;HPM_P2
2022/06/30 00:00:38;;;;;;;16.75;15.05;;;20.80;99.90;;;;;;5111067;28;20238;-50
2022/06/30 00:03:06;;;;;;;16.80;15.05;;;20.90;99.90;;;;;;5097072;28;20267;-50
2022/06/30 00:05:34;;;;;;;16.70;15.00;;;20.80;99.90;;;;;;5080941;28;20316;-50
2022/06/30 00:08:03;;;;;;;16.83;15.10;;;20.80;99.90;;;;;;5074189;28;20741;-50
2022/06/30 00:10:31;;;;;;;16.80;15.00;;;20.70;99.90;;;;;;5089800;28;20215;-50
2022/06/30 00:13:00;;;;;;;17.17;15.43;;;20.80;99.90;;;;;;5076860;28;20451;-50
2022/06/30 00:15:28;;;;;;;17.80;15.88;;;20.80;99.90;;;;;;5091119;28;20212;-50
2022/06/30 00:17:56;;;;;;;16.98;14.70;;;20.90;99.90;;;;;;5090480;28;20656;-50
2022/06/30 00:20:24;;;;;;;18.83;16.77;;;20.90;99.90;;;;;;5082086;28;20229;-50
2022/06/30 00:22:52;;;;;;;18.63;16.08;;;21.00;99.90;;;;;;5085634;28;20273;-50
2022/06/30 00:25:21;;;;;;;18.20;16.40;;;21.00;99.90;;;;;;5091317;28;20239;-50
2022/06/30 00:27:49;;;;;;;16.38;14.65;;;21.00;99.90;;;;;;5090849;28;20246;-50
2022/06/30 00:30:18;;;;;;;17.88;14.68;;;21.00;99.90;;;;;;5077079;28;20639;-51
2022/06/30 00:32:46;;;;;;;17.10;15.32;;;21.00;99.90;;;;;;5090473;28;20734;-50
2022/06/30 00:35:17;;;;;;;17.60;15.70;;;20.90;99.90;;;;;;5090681;28;20208;-50
2022/06/30 00:37:45;;;;;;;16.90;15.20;;;20.90;99.90;;;;;;5079060;28;20209;-50
2022/06/30 00:40:13;;;;;;;16.50;14.70;;;20.90;99.90;;;;;;5088337;28;20646;-50
2022/06/30 00:42:41;;;;;;;16.73;15.15;;;20.90;99.90;;;;;;5090849;28;20227;-50
2022/06/30 00:45:10;;;;;;;17.83;15.93;;;20.90;99.90;;;;;;5090828;28;20261;-50
2022/06/30 00:47:39;;;;;;;19.38;15.35;;;20.80;99.90;;;;;;5090079;28;20554;-50
2022/06/30 00:50:09;;;;;;;17.38;15.52;;;20.80;99.90;;;;;;5090782;28;20231;-50
2022/06/30 00:52:37;;;;;;;17.40;15.70;;;20.80;99.90;;;;;;5089961;28;20241;-51
2022/06/30 00:55:06;;;;;;;18.05;15.77;;;20.70;99.90;;;;;;5090752;28;20208;-50
2022/06/30 00:57:38;;;;;;;18.48;16.55;;;20.70;99.90;;;;;;5090142;28;20205;-50
2022/06/30 01:00:07;;;;;;;19.08;17.17;;;20.70;99.90;;;;;;5090492;28;20228;-50
2022/06/30 01:02:35;;;;;;;19.38;17.27;;;20.60;99.90;;;;;;5089385;28;20777;-50
2022/06/30 01:05:07;;;;;;;20.25;17.50;;;20.60;99.90;;;;;;5090226;28;20200;-50
2022/06/30 01:07:35;;;;;;;20.08;17.98;;;20.60;99.90;;;;;;5089706;28;20208;-50
2022/06/30 01:12:50;;;;;;;19.52;17.38;;;20.50;99.90;;;;;;5075814;28;20291;-50
2022/06/30 01:15:19;;;;;;;18.20;16.30;;;20.50;99.90;;;;;;5089833;28;20212;-53
2022/06/30 01:17:50;;;;;;;15.50;14.00;;;20.50;99.90;;;;;;5089897;28;20261;-50
2022/06/30 01:20:25;;;;;;;19.02;17.13;;;20.50;99.90;;;;;;5090017;28;20276;-50
2022/06/30 01:22:55;;;;;;;17.95;15.57;;;20.50;99.90;;;;;;5089588;28;20238;-49
2022/06/30 01:25:24;;;;;;;19.90;16.90;;;20.40;99.90;;;;;;5089818;28;20247;-50
2022/06/30 01:27:52;;;;;;;19.33;17.33;;;20.30;99.90;;;;;;5089883;28;20280;-50
2022/06/30 01:30:20;;;;;;;18.17;16.30;;;20.30;99.90;;;;;;5089627;28;20260;-50
2022/06/30 01:32:48;;;;;;;19.77;17.77;;;20.20;99.90;;;;;;5089195;28;20201;-50
2022/06/30 01:35:17;;;;;;;18.80;16.65;;;20.20;99.90;;;;;;5089426;28;20208;-50
2022/06/30 01:37:48;;;;;;;17.10;15.40;;;20.20;99.90;;;;;;5089491;28;20254;-50
2022/06/30 01:40:18;;;;;;;18.95;17.00;;;20.20;99.90;;;;;;5089505;28;20257;-50
2022/06/30 01:42:46;;;;;;;18.40;16.50;;;20.10;99.90;;;;;;5089166;28;20277;-50
2022/06/30 01:45:15;;;;;;;18.42;16.52;;;20.10;99.90;;;;;;5089919;28;20204;-50
2022/06/30 01:47:43;;;;;;;18.17;16.35;;;20.10;99.90;;;;;;5089224;28;20235;-50
2022/06/30 01:50:13;;;;;;;18.85;16.90;;;20.10;99.90;;;;;;5089783;28;20277;-50
2022/06/30 01:52:41;;;;;;;19.20;17.20;;;20.00;99.90;;;;;;5088736;28;20634;-50
2022/06/30 01:55:10;;;;;;;18.00;16.38;;;20.00;99.90;;;;;;5089214;28;20227;-50
2022/06/30 01:57:40;;;;;;;17.67;15.93;;;19.90;99.90;;;;;;5089439;28;20204;-50
2022/06/30 02:00:10;;;;;;;18.25;16.23;;;19.90;99.90;;;;;;5089024;28;20716;-50
2022/06/30 02:02:38;;;;;;;19.60;17.50;;;19.80;99.90;;;;;;5088972;28;20232;-50
2022/06/30 02:05:07;;;;;;;19.15;17.20;;;19.80;99.90;;;;;;5093489;28;20235;-50
2022/06/30 02:07:36;;;;;;;20.40;18.30;;;19.70;99.90;;;;;;5093498;28;20204;-51
2022/06/30 02:10:05;;;;;;;18.67;16.70;;;19.70;99.90;;;;;;5093282;28;20232;-50
2022/06/30 02:12:48;;;;;;;18.23;16.35;;;19.70;99.90;;;;;;5078775;28;20592;-50
2022/06/30 02:15:21;;;;;;;19.58;17.52;;;19.70;99.90;;;;;;5092823;28;20200;-50
2022/06/30 02:17:51;;;;;;;18.55;16.75;;;19.60;99.90;;;;;;5093073;28;20265;-50
2022/06/30 02:20:23;;;;;;;19.48;17.58;;;19.60;99.90;;;;;;5093492;28;20308;-50
2022/06/30 02:22:53;;;;;;;20.52;16.90;;;19.50;99.90;;;;;;5092528;28;20219;-50
2022/06/30 02:25:22;;;;;;;19.05;17.08;;;19.40;99.90;;;;;;5093037;28;20222;-50
2022/06/30 02:27:50;;;;;;;20.80;18.58;;;19.40;99.90;;;;;;5092953;28;20236;-50
2022/06/30 02:30:20;;;;;;;19.08;17.20;;;19.30;99.90;;;;;;5093416;28;20273;-50
2022/06/30 02:32:49;;;;;;;20.55;18.33;;;19.30;99.90;;;;;;5092119;28;20232;-50
2022/06/30 02:35:17;;;;;;;18.70;16.77;;;19.20;99.90;;;;;;5093477;28;20281;-50
2022/06/30 02:37:45;;;;;;;21.02;18.05;;;19.20;99.90;;;;;;5092464;28;20554;-50
2022/06/30 02:40:13;;;;;;;20.50;17.95;;;19.10;99.90;;;;;;5093314;28;20232;-50
2022/06/30 02:42:42;;;;;;;20.05;18.02;;;19.00;99.90;;;;;;5092817;28;20244;-50
2022/06/30 02:45:11;;;;;;;21.30;19.13;;;19.00;99.90;;;;;;5092722;28;20307;-50
2022/06/30 02:47:42;;;;;;;20.67;18.48;;;18.90;99.90;;;;;;5092346;28;20208;-50
2022/06/30 02:50:11;;;;;;;21.35;19.17;;;19.00;99.90;;;;;;5092697;28;21002;-50
2022/06/30 02:52:40;;;;;;;20.83;18.58;;;19.00;99.90;;;;;;5092772;28;20212;-50
2022/06/30 02:55:09;;;;;;;21.33;19.13;;;18.90;99.90;;;;;;5092595;28;20208;-50
2022/06/30 02:57:37;;;;;;;22.40;20.10;;;18.90;99.90;;;;;;5092757;28;20200;-50
2022/06/30 03:00:07;;;;;;;21.80;19.63;;;18.80;99.90;;;;;;5091958;28;20296;-51
2022/06/30 03:02:35;;;;;;;21.45;19.30;;;18.70;99.90;;;;;;5091829;28;20696;-50
2022/06/30 03:05:05;;;;;;;21.23;19.13;;;18.70;99.90;;;;;;5092769;28;20216;-50
2022/06/30 03:07:33;;;;;;;23.40;20.98;;;18.70;99.90;;;;;;5093152;28;20239;-50
2022/06/30 03:10:01;;;;;;;20.80;18.33;;;18.70;99.90;;;;;;5092550;28;20227;-50
2022/06/30 03:12:29;;;;;;;22.33;20.02;;;18.70;99.90;;;;;;5077965;28;20692;-50
2022/06/30 03:14:57;;;;;;;23.20;20.90;;;18.70;99.90;;;;;;5092588;28;20197;-50
2022/06/30 03:17:25;;;;;;;22.30;19.98;;;18.70;99.90;;;;;;5090942;28;20266;-50
2022/06/30 03:19:53;;;;;;;21.05;19.05;;;18.70;99.90;;;;;;5092594;28;20235;-50
2022/06/30 03:22:24;;;;;;;22.48;20.27;;;18.80;99.90;;;;;;5092430;28;20257;-50
2022/06/30 03:24:52;;;;;;;21.58;19.42;;;18.70;99.90;;;;;;5091735;28;20220;-50
2022/06/30 03:27:20;;;;;;;22.40;20.02;;;18.70;99.90;;;;;;5092431;28;20253;-50
2022/06/30 03:29:48;;;;;;;21.38;19.20;;;18.70;99.90;;;;;;5091871;28;20265;-50
2022/06/30 03:32:16;;;;;;;20.55;18.05;;;18.70;99.90;;;;;;5091471;28;20208;-51
2022/06/30 03:34:44;;;;;;;21.23;19.10;;;18.70;99.90;;;;;;5090758;28;20218;-50
2022/06/30 03:37:12;;;;;;;21.42;19.30;;;18.70;99.90;;;;;;5091071;28;20287;-50
2022/06/30 03:39:41;;;;;;;19.90;17.83;;;18.70;99.90;;;;;;5091095;28;20232;-50
2022/06/30 03:42:10;;;;;;;20.92;17.92;;;18.70;99.90;;;;;;5091647;28;20204;-50
2022/06/30 03:44:38;;;;;;;20.48;18.10;;;18.70;99.90;;;;;;5091450;28;20255;-50
2022/06/30 03:47:06;;;;;;;21.50;19.33;;;18.70;99.90;;;;;;5091730;28;20611;-50
2022/06/30 03:49:34;;;;;;;20.17;18.17;;;18.70;99.90;;;;;;5091142;28;20208;-50
2022/06/30 03:52:02;;;;;;;20.60;18.40;;;18.80;99.90;;;;;;5091820;28;20235;-50
2022/06/30 03:54:30;;;;;;;21.83;19.13;;;18.80;99.90;;;;;;5091358;28;20845;-50
2022/06/30 03:57:00;;;;;;;21.25;19.08;;;18.80;99.90;;;;;;5091398;28;20232;-50
2022/06/30 03:59:35;;;;;;;20.40;18.30;;;18.90;99.90;;;;;;5091500;28;20200;-49
2022/06/30 04:02:03;;;;;;;20.50;18.42;;;18.90;99.90;;;;;;5090525;28;20215;-50
2022/06/30 04:04:32;;;;;;;20.30;18.25;;;18.90;99.90;;;;;;5091222;28;20224;-50
2022/06/30 04:07:00;;;;;;;22.17;19.88;;;19.00;99.90;;;;;;5090583;28;20230;-50
2022/06/30 04:09:28;;;;;;;22.98;20.63;;;19.00;99.90;;;;;;5091149;28;20285;-50
2022/06/30 04:11:56;;;;;;;23.35;20.85;;;19.10;99.90;;;;;;5079235;28;20213;-50
2022/06/30 04:14:26;;;;;;;22.60;19.52;;;19.10;99.90;;;;;;5089363;28;20216;-50
2022/06/30 04:16:54;;;;;;;22.20;19.80;;;19.30;99.90;;;;;;5090806;28;21012;-50
2022/06/30 04:19:22;;;;;;;19.67;17.80;;;19.90;99.90;;;;;;5091027;28;20255;-50
2022/06/30 04:21:50;;;;;;;20.17;18.25;;;20.30;99.90;;;;;;5091605;28;20635;-50
2022/06/30 04:24:18;;;;;;;19.92;18.02;;;20.70;99.90;;;;;;5090363;28;20263;-50
2022/06/30 04:26:47;;;;;;;20.55;18.55;;;21.00;99.90;;;;;;5090496;28;20764;-50
2022/06/30 04:29:15;;;;;;;19.85;17.75;;;21.30;99.90;;;;;;5090393;28;20289;-50
2022/06/30 04:34:30;;;;;;;18.60;16.70;;;21.60;99.90;;;;;;5090441;28;20249;-51
2022/06/30 04:36:58;;;;;;;19.50;17.42;;;21.90;99.90;;;;;;5091064;28;20748;-51
2022/06/30 04:39:26;;;;;;;17.23;15.63;;;22.10;99.90;;;;;;5089923;28;20255;-50
2022/06/30 04:41:53;;;;;;;18.92;17.02;;;22.40;99.90;;;;;;5090822;28;20208;-50
2022/06/30 04:44:21;;;;;;;18.80;16.95;;;22.60;99.90;;;;;;5090869;28;20235;-51
2022/06/30 04:46:51;;;;;;;17.80;16.10;;;22.90;99.90;;;;;;5090065;28;20573;-51
2022/06/30 04:49:19;;;;;;;16.83;15.20;;;23.10;99.90;;;;;;5090880;28;20296;-51
2022/06/30 04:51:47;;;;;;;16.73;15.23;;;23.20;99.90;;;;;;5090182;28;20254;-50
2022/06/30 04:54:15;;;;;;;16.17;14.68;;;23.40;99.90;;;;;;5090744;28;20250;-50
2022/06/30 04:56:44;;;;;;;16.70;15.20;;;23.50;99.90;;;;;;5098867;28;20234;-50
2022/06/30 04:59:12;;;;;;;16.38;14.88;;;23.70;99.90;;;;;;5099987;28;20228;-50
2022/06/30 05:01:40;;;;;;;15.52;14.05;;;24.10;99.90;;;;;;5092281;28;20745;-50
2022/06/30 05:04:10;;;;;;;16.08;14.30;;;24.20;99.90;;;;;;5090686;28;20220;-51
2022/06/30 05:06:38;;;;;;;14.98;13.65;;;24.40;99.90;;;;;;5090029;28;20635;-51
2022/06/30 05:09:06;;;;;;;16.38;14.98;;;24.60;99.90;;;;;;5076319;28;20297;-51
2022/06/30 05:11:35;;;;;;;16.00;14.30;;;24.90;99.90;;;;;;5081251;28;20233;-50
2022/06/30 05:14:03;;;;;;;15.35;13.95;;;25.20;99.90;;;;;;5085328;28;20212;-50
2022/06/30 05:16:31;;;;;;;15.50;13.90;;;25.60;99.90;;;;;;5090690;28;20274;-51
2022/06/30 05:18:59;;;;;;;15.48;14.18;;;25.80;99.90;;;;;;5089569;28;20215;-51
2022/06/30 05:21:29;;;;;;;15.10;13.80;;;25.90;99.90;;;;;;5089804;28;20707;-50
2022/06/30 05:26:42;;;;;;;15.57;14.25;;;26.10;99.90;;;;;;5090433;28;20204;-51
2022/06/30 05:29:10;;;;;;;14.15;12.93;;;26.40;99.90;;;;;;5089967;28;20255;-51
2022/06/30 05:31:38;;;;;;;14.93;13.63;;;26.60;99.90;;;;;;5088429;28;20256;-51
2022/06/30 05:34:06;;;;;;;13.43;12.32;;;26.90;99.90;;;;;;5089516;28;20212;-51
2022/06/30 05:36:36;;;;;;;15.88;14.32;;;27.10;99.90;;;;;;5089778;28;20232;-51
2022/06/30 05:39:04;;;;;;;14.60;13.20;;;27.30;99.90;;;;;;5088716;28;20212;-51
2022/06/30 05:41:32;;;;;;;14.82;13.43;;;27.30;99.90;;;;;;5088936;28;20598;-51
2022/06/30 05:44:00;;;;;;;14.52;13.25;;;27.70;99.90;;;;;;5090175;28;20224;-51
2022/06/30 05:46:28;;;;;;;15.85;14.45;;;27.90;99.90;;;;;;5089492;28;20254;-51
2022/06/30 05:48:56;;;;;;;16.05;14.65;;;28.00;99.90;;;;;;5089846;28;20247;-50
2022/06/30 05:51:24;;;;;;;15.60;14.10;;;28.20;99.90;;;;;;5089889;28;20283;-51
2022/06/30 05:53:54;;;;;;;15.15;13.88;;;28.40;99.90;;;;;;5089669;28;20212;-51
2022/06/30 05:56:22;;;;;;;16.23;14.73;;;28.60;99.90;;;;;;5089744;28;20200;-51
2022/06/30 05:58:50;;;;;;;15.45;14.10;;;28.10;99.90;;;;;;5089207;28;20197;-50
2022/06/30 06:01:19;;;;;;;15.85;14.45;;;27.80;99.90;;;;;;5089839;28;20255;-50
2022/06/30 06:03:47;;;;;;;15.27;13.93;;;28.20;99.90;;;;;;5089515;28;20212;-50
2022/06/30 06:06:15;;;;;;;15.30;13.93;;;28.60;99.90;;;;;;5090069;28;20232;-51
2022/06/30 06:08:43;;;;;;;14.63;13.40;;;28.90;99.90;;;;;;5088852;28;20200;-51
2022/06/30 06:11:13;;;;;;;15.52;14.13;;;29.20;99.90;;;;;;5083740;28;20251;-51
2022/06/30 06:13:41;;;;;;;16.48;14.77;;;29.40;99.90;;;;;;5081546;28;20208;-51
2022/06/30 06:16:09;;;;;;;16.08;14.45;;;29.70;99.90;;;;;;5089060;28;20204;-51
2022/06/30 06:18:37;;;;;;;15.52;13.98;;;30.00;99.90;;;;;;5088890;28;20212;-51
2022/06/30 06:21:05;;;;;;;16.35;14.77;;;30.40;99.90;;;;;;5089040;28;20224;-51
2022/06/30 06:23:49;;;;;;;16.00;14.60;;;30.50;99.90;;;;;;5095140;28;20207;-50
2022/06/30 06:26:18;;;;;;;14.00;12.75;;;30.60;99.90;;;;;;5090919;28;20286;-51
2022/06/30 06:31:33;;;;;;;15.48;14.13;;;30.70;99.90;;;;;;5080008;28;20277;-51
2022/06/30 06:34:01;;;;;;;15.40;13.93;;;30.60;99.90;;;;;;5082485;28;20204;-50
2022/06/30 06:36:30;;;;;;;16.33;14.82;;;30.60;99.90;;;;;;5088537;28;20830;-51
2022/06/30 06:38:58;;;;;;;14.77;13.57;;;30.80;99.90;;;;;;5088354;28;20252;-51
2022/06/30 06:41:28;;;;;;;15.82;14.27;;;31.00;99.90;;;;;;5089521;28;20278;-50
2022/06/30 06:43:56;;;;;;;16.17;14.77;;;31.10;99.90;;;;;;5088545;28;20246;-50
2022/06/30 06:46:27;;;;;;;15.68;14.30;;;31.00;99.90;;;;;;5088225;28;20255;-51
2022/06/30 06:48:58;;;;;;;14.18;13.05;;;31.30;99.90;;;;;;5090159;28;20265;-52
2022/06/30 06:51:27;;;;;;;15.93;14.52;;;31.40;99.90;;;;;;5092138;28;20228;-51
2022/06/30 06:53:55;;;;;;;15.00;13.80;;;31.30;99.90;;;;;;5091909;28;20192;-51
2022/06/30 06:56:24;;;;;;;15.80;14.30;;;31.40;99.90;;;;;;5092298;28;20672;-51
2022/06/30 06:59:00;;;;;;;14.88;13.63;;;31.30;99.90;;;;;;5092324;28;20207;-51
2022/06/30 07:01:29;;;;;;;14.60;13.27;;;31.40;99.90;;;;;;5091456;28;20255;-51
2022/06/30 07:03:57;;;;;;;14.40;13.20;;;31.50;99.90;;;;;;5092738;28;20204;-51
2022/06/30 07:06:26;;;;;;;14.20;13.02;;;31.80;99.90;;;;;;5092059;28;20242;-51
2022/06/30 07:08:54;;;;;;;15.13;13.90;;;31.90;99.90;;;;;;5092388;28;20208;-51
2022/06/30 07:11:22;;;;;;;15.85;14.35;;;31.80;99.90;;;;;;5084381;28;20232;-51
2022/06/30 07:13:50;;;;;;;15.77;14.20;;;32.00;99.90;;;;;;5085760;28;20265;-51
2022/06/30 07:16:20;;;;;;;15.63;14.20;;;32.00;99.90;;;;;;5092364;28;20265;-51
2022/06/30 07:18:48;;;;;;;16.25;14.82;;;32.20;99.90;;;;;;5091894;28;20255;-51
2022/06/30 07:21:17;;;;;;;15.98;14.48;;;32.20;99.90;;;;;;5092000;28;20795;-51
2022/06/30 07:23:45;;;;;;;16.63;15.02;;;32.20;99.90;;;;;;5091548;28;20207;-51
2022/06/30 07:26:13;;;;;;;14.43;13.23;;;32.20;99.90;;;;;;5091790;28;20645;-51
2022/06/30 07:28:42;;;;;;;15.07;13.77;;;32.20;99.90;;;;;;5091478;28;20260;-51
2022/06/30 07:31:23;;;;;;;13.77;12.38;;;32.30;99.90;;;;;;5091462;28;20852;-51
2022/06/30 07:33:54;;;;;;;13.35;12.15;;;32.60;99.90;;;;;;5091498;28;20664;-51
2022/06/30 07:36:22;;;;;;;12.82;11.73;;;32.50;99.90;;;;;;5091925;28;20199;-51
2022/06/30 07:38:50;;;;;;;12.00;10.90;;;32.60;99.90;;;;;;5091375;28;20210;-51
2022/06/30 07:41:19;;;;;;;11.82;10.73;;;32.70;99.90;;;;;;5091947;28;20250;-51
2022/06/30 07:43:47;;;;;;;12.73;11.63;;;32.50;99.90;;;;;;5091975;28;20207;-51
2022/06/30 07:46:15;;;;;;;12.18;11.13;;;32.60;99.90;;;;;;5091341;28;20219;-51
2022/06/30 07:48:45;;;;;;;12.57;11.27;;;32.50;99.90;;;;;;5091913;28;20700;-51
2022/06/30 07:51:13;;;;;;;11.68;10.70;;;32.60;99.90;;;;;;5091302;28;20280;-51
2022/06/30 07:53:42;;;;;;;11.57;10.48;;;32.50;99.90;;;;;;5091367;28;20234;-51
2022/06/30 07:56:10;;;;;;;12.73;11.45;;;32.80;99.90;;;;;;5091559;28;20277;-51
2022/06/30 07:58:38;;;;;;;11.60;10.60;;;32.90;99.90;;;;;;5091398;28;20199;-51
2022/06/30 08:01:06;;;;;;;13.15;11.93;;;32.90;99.90;;;;;;5090032;28;20231;-51
2022/06/30 08:03:41;;;;;;;12.02;11.02;;;32.80;99.90;;;;;;5091335;28;20203;-51
2022/06/30 08:06:11;;;;;;;11.57;10.68;;;32.60;99.90;;;;;;5091335;28;20224;-51
2022/06/30 08:08:40;;;;;;;12.20;10.95;;;32.60;99.90;;;;;;5090874;28;20216;-51
2022/06/30 08:11:08;;;;;;;11.48;10.38;;;32.50;99.90;;;;;;5086374;28;20228;-51
2022/06/30 08:13:36;;;;;;;12.95;11.80;;;32.20;99.90;;;;;;5082254;28;20203;-51
2022/06/30 08:16:05;;;;;;;13.10;11.73;;;31.70;99.90;;;;;;5091246;28;20204;-51
2022/06/30 08:18:33;;;;;;;12.18;11.07;;;31.50;99.90;;;;;;5090885;28;20211;-51
2022/06/30 08:21:01;;;;;;;11.23;10.07;;;31.50;99.90;;;;;;5091110;28;20721;-51
2022/06/30 08:23:31;;;;;;;11.63;10.43;;;31.30;99.90;;;;;;5090740;28;20268;-51
2022/06/30 08:25:59;;;;;;;12.77;10.88;;;31.30;99.90;;;;;;5090905;28;20228;-51
2022/06/30 08:28:27;;;;;;;11.88;10.68;;;31.20;99.90;;;;;;5091129;28;20200;-51
2022/06/30 08:30:55;;;;;;;11.68;10.73;;;31.10;99.90;;;;;;5090739;28;20232;-51
2022/06/30 08:33:23;;;;;;;11.48;10.38;;;31.00;99.90;;;;;;5077359;28;20201;-51
2022/06/30 08:35:51;;;;;;;12.40;9.88;;;30.90;99.90;;;;;;5091434;28;20261;-51
2022/06/30 08:38:29;;;;;;;12.20;11.05;;;31.00;99.90;;;;;;5091056;28;20199;-51
2022/06/30 08:43:45;;;;;;;12.50;11.30;;;30.80;99.90;;;;;;5091050;28;20208;-51
2022/06/30 08:46:15;;;;;;;12.73;11.45;;;30.60;99.90;;;;;;5090364;28;20305;-51
2022/06/30 08:48:43;;;;;;;12.48;11.38;;;30.70;99.90;;;;;;5091301;28;20204;-50
2022/06/30 08:51:15;;;;;;;11.32;10.23;;;30.70;99.90;;;;;;5090288;28;20277;-50
2022/06/30 08:53:48;;;;;;;13.00;10.70;;;30.70;99.90;;;;;;5090004;28;20582;-51
2022/06/30 08:56:18;;;;;;;11.73;10.73;;;30.80;99.90;;;;;;5090366;28;20192;-52
2022/06/30 08:58:48;;;;;;;11.45;10.35;;;30.90;99.90;;;;;;5089936;28;20624;-51
2022/06/30 09:01:16;;;;;;;12.55;10.35;;;31.10;99.90;;;;;;5089791;28;20763;-52
2022/06/30 09:03:45;;;;;;;11.43;10.45;;;31.20;99.90;;;;;;5089952;28;20209;-52
2022/06/30 09:06:14;;;;;;;13.80;10.80;;;31.30;99.90;;;;;;5089980;28;20231;-52
2022/06/30 09:09:01;;;;;;;11.77;10.68;;;31.20;99.90;;;;;;5089355;28;20676;-51
2022/06/30 09:11:51;;;;;;;12.02;10.27;;;31.10;99.90;;;;;;5091901;28;20285;-51
2022/06/30 09:14:32;;;;;;;10.52;9.63;;;31.10;99.90;;;;;;5086664;28;20204;-51
2022/06/30 09:17:01;;;;;;;9.30;8.40;;;30.90;99.90;;;;;;5087135;28;20196;-51
2022/06/30 09:19:31;;;;;;;10.15;9.15;;;30.90;99.90;;;;;;5089361;28;20244;-51
2022/06/30 09:22:07;;;;;;;10.02;9.13;;;31.00;99.90;;;;;;5090106;28;20200;-51
2022/06/30 09:24:36;;;;;;;9.40;8.50;;;31.00;99.90;;;;;;5089521;28;20265;-51
2022/06/30 09:27:14;;;;;;;8.88;8.05;;;31.00;99.90;;;;;;5089546;28;20634;-51
2022/06/30 09:29:53;;;;;;;9.38;8.27;;;31.00;99.90;;;;;;5089632;28;20208;-51
2022/06/30 09:32:47;;;;;;;8.55;7.85;;;30.90;99.90;;;;;;5081393;28;20291;-51
2022/06/30 09:35:17;;;;;;;9.13;7.72;;;30.90;99.90;;;;;;5088205;28;20234;-51
2022/06/30 09:37:45;;;;;;;8.88;8.10;;;30.90;99.90;;;;;;5088946;28;20207;-51
2022/06/30 09:40:14;;;;;;;7.60;6.57;;;30.80;99.90;;;;;;5089563;28;20232;-51
2022/06/30 09:42:45;;;;;;;7.32;6.55;;;30.90;99.90;;;;;;5089290;28;20211;-51
2022/06/30 09:45:35;;;;;;;7.13;4.63;;;30.90;99.90;;;;;;5089608;28;20200;-51
2022/06/30 09:48:04;;;;;;;6.35;5.75;;;30.80;99.90;;;;;;5088898;28;20228;-51
2022/06/30 09:50:32;;;;;;;6.05;5.53;;;30.90;99.90;;;;;;5089592;28;20224;-51
2022/06/30 09:53:10;;;;;;;7.45;6.75;;;30.70;99.90;;;;;;5089295;28;20269;-51
2022/06/30 09:55:42;;;;;;;7.05;5.75;;;30.80;99.90;;;;;;5089198;28;20327;-51
2022/06/30 09:58:13;;;;;;;5.28;4.78;;;31.00;99.90;;;;;;5090685;28;20931;-51
2022/06/30 10:00:46;;;;;;;5.80;5.30;;;31.00;99.90;;;;;;5085561;28;20258;-51
2022/06/30 10:03:16;;;;;;;6.75;5.00;;;31.00;99.90;;;;;;5089976;28;20287;-51
2022/06/30 10:05:45;;;;;;;6.55;4.57;;;30.90;99.90;;;;;;5088188;28;20254;-51
2022/06/30 10:08:14;;;;;;;6.03;4.55;;;30.90;99.90;;;;;;5088753;28;20224;-51
2022/06/30 10:10:43;;;;;;;4.47;4.07;;;30.80;99.90;;;;;;5087034;28;20266;-51
2022/06/30 10:13:15;;;;;;;5.57;4.68;;;30.80;99.20;;;;;;5077436;28;20265;-51
2022/06/30 10:15:48;;;;;;;4.90;4.43;;;30.90;99.90;;;;;;5088931;28;20265;-51
2022/06/30 10:18:17;;;;;;;5.93;4.50;;;30.90;99.80;;;;;;5076927;28;20632;-51
2022/06/30 10:20:46;;;;;;;4.88;4.38;;;30.80;99.80;;;;;;5088473;28;20239;-51
2022/06/30 10:23:15;;;;;;;6.57;4.97;;;30.90;99.10;;;;;;5088364;28;20265;-51
2022/06/30 10:25:43;;;;;;;6.63;4.97;;;30.80;98.60;;;;;;5092772;28;20269;-51
2022/06/30 10:28:14;;;;;;;7.10;5.00;;;30.70;99.90;;;;;;5093003;28;20305;-51
2022/06/30 10:30:48;;;;;;;6.47;4.70;;;30.80;99.90;;;;;;5092684;28;20319;-51
2022/06/30 10:33:26;;;;;;;6.80;5.03;;;30.80;99.00;;;;;;5092837;28;20245;-51
2022/06/30 10:36:01;;;;;;;6.20;4.38;;;30.80;99.40;;;;;;5092754;28;20207;-55
2022/06/30 10:38:36;;;;;;;5.78;4.78;;;30.80;99.60;;;;;;5092281;28;20285;-51
2022/06/30 10:41:11;;;;;;;5.30;4.80;;;30.80;99.20;;;;;;5092925;28;20773;-51
2022/06/30 10:44:14;;;;;;;6.50;5.05;;;30.80;99.00;;;;;;5092413;28;20265;-51
2022/06/30 10:47:10;;;;;;;5.00;4.40;;;30.80;99.60;;;;;;5092979;28;20199;-51
2022/06/30 10:49:53;;;;;;;5.30;4.80;;;30.80;96.30;;;;;;5045279;28;20212;-50
2022/06/30 10:52:24;;;;;;;6.35;4.63;;;30.70;97.50;;;;;;5092661;28;20303;-51
2022/06/30 10:55:06;;;;;;;5.13;4.57;;;30.80;99.10;;;;;;5092550;28;20261;-51
2022/06/30 10:58:07;;;;;;;6.72;5.00;;;31.00;99.90;;;;;;5093039;28;20208;-51
2022/06/30 11:01:02;;;;;;;6.10;4.63;;;31.00;97.50;;;;;;5092770;28;20224;-51
2022/06/30 11:04:07;;;;;;;5.90;4.40;;;31.00;98.40;;;;;;5092724;28;20330;-50
2022/06/30 11:07:00;;;;;;;5.18;4.18;;;31.00;98.30;;;;;;5091992;28;20222;-51
2022/06/30 11:10:05;;;;;;;4.38;3.90;;;31.00;98.30;;;;;;5081071;28;20865;-51
2022/06/30 11:12:56;;;;;;;4.28;3.80;;;31.10;98.50;;;;;;5075134;28;20212;-50
2022/06/30 11:15:49;;;;;;;5.07;4.00;;;31.00;94.60;;;;;;5091723;28;20208;-51
2022/06/30 11:18:20;;;;;;;4.60;4.10;;;31.10;97.30;;;;;;5079915;28;20212;-51
2022/06/30 11:20:49;;;;;;;4.93;4.25;;;31.00;97.10;;;;;;5091467;28;20293;-50
2022/06/30 11:23:20;;;;;;;5.72;4.20;;;31.00;96.70;;;;;;5092200;28;20208;-50
2022/06/30 11:28:36;;;;;;;5.47;4.28;;;31.10;97.90;;;;;;5092350;28;20232;-50
2022/06/30 11:31:04;;;;;;;5.55;4.30;;;31.20;96.20;;;;;;5091390;28;20236;-50
2022/06/30 11:33:33;;;;;;;5.13;4.20;;;31.30;97.10;;;;;;5092475;28;20208;-49
2022/06/30 11:36:09;;;;;;;5.70;4.10;;;31.30;96.80;;;;;;5090496;28;20208;-50
2022/06/30 11:38:37;;;;;;;5.22;3.85;;;31.30;97.20;;;;;;5078895;28;20238;-51
2022/06/30 11:43:52;;;;;;;5.15;4.18;;;31.10;95.90;;;;;;5091332;28;20265;-50
2022/06/30 11:46:21;;;;;;;4.57;4.13;;;31.00;95.80;;;;;;5092060;28;20208;-50
2022/06/30 11:48:50;;;;;;;7.35;4.10;;;31.30;95.50;;;;;;5090959;28;20232;-50
2022/06/30 11:51:18;;;;;;;3.88;3.38;;;31.30;95.90;;;;;;5092035;28;20281;-50
2022/06/30 11:53:47;;;;;;;5.07;3.80;;;31.40;94.40;;;;;;5077280;28;20246;-50
2022/06/30 11:56:15;;;;;;;5.60;3.30;;;31.60;95.00;;;;;;5091863;28;20630;-51
2022/06/30 11:58:45;;;;;;;4.32;3.80;;;31.60;92.40;;;;;;5091231;28;20249;-50
2022/06/30 12:01:16;;;;;;;9.20;3.78;;;31.50;93.70;;;;;;5091178;28;20229;-50
2022/06/30 12:03:47;;;;;;;4.95;3.95;;;31.50;93.50;;;;;;5090659;28;20258;-50
2022/06/30 12:06:18;;;;;;;4.47;3.60;;;31.50;94.00;;;;;;5091289;28;20612;-51
2022/06/30 12:08:50;;;;;;;5.25;3.67;;;31.60;93.70;;;;;;5091093;28;20281;-50
2022/06/30 12:11:19;;;;;;;6.72;4.25;;;31.70;94.60;;;;;;5084280;28;20229;-51
2022/06/30 12:13:48;;;;;;;5.43;4.15;;;31.70;93.60;;;;;;5066324;28;20204;-52
2022/06/30 12:16:18;;;;;;;5.60;4.00;;;31.60;92.60;;;;;;5082598;28;20266;-51
2022/06/30 12:18:47;;;;;;;7.40;4.45;;;31.60;93.50;;;;;;5083977;28;20217;-49
2022/06/30 12:21:16;;;;;;;5.38;4.05;;;31.80;93.80;;;;;;5074922;28;20220;-50
2022/06/30 12:23:48;;;;;;;5.22;3.92;;;31.70;93.40;;;;;;5085238;28;20212;-50
2022/06/30 12:26:21;;;;;;;6.68;4.22;;;31.70;93.20;;;;;;5085377;28;20833;-50
2022/06/30 12:28:55;;;;;;;6.90;4.50;;;31.70;93.40;;;;;;5089307;28;20303;-51
2022/06/30 12:31:24;;;;;;;5.65;4.25;;;31.80;95.10;;;;;;5089440;28;20270;-51
2022/06/30 12:33:54;;;;;;;4.55;4.15;;;31.80;94.40;;;;;;5088869;28;20224;-51
2022/06/30 12:36:25;;;;;;;7.22;4.07;;;31.80;93.50;;;;;;5090027;28;20213;-52
2022/06/30 12:38:54;;;;;;;6.50;4.57;;;31.80;93.80;;;;;;5078447;28;20258;-51
2022/06/30 12:41:23;;;;;;;6.32;4.75;;;31.90;94.80;;;;;;5079268;28;20231;-51
2022/06/30 12:43:52;;;;;;;7.60;4.85;;;32.00;95.90;;;;;;5087204;28;20204;-52
2022/06/30 12:46:21;;;;;;;4.70;4.18;;;32.10;95.90;;;;;;5089351;28;20668;-50
2022/06/30 12:48:52;;;;;;;7.30;4.60;;;32.20;94.80;;;;;;5088306;28;20263;-51
2022/06/30 12:51:43;;;;;;;8.80;4.50;;;32.30;95.70;;;;;;5089234;28;20253;-51
2022/06/30 12:54:12;;;;;;;7.63;4.68;;;32.40;95.50;;;;;;5078703;28;20208;-50
2022/06/30 12:56:50;;;;;;;4.82;4.43;;;32.50;96.00;;;;;;5089560;28;20257;-51
2022/06/30 12:59:20;;;;;;;5.38;4.65;;;32.20;94.60;;;;;;5079319;28;20201;-51
2022/06/30 13:01:55;;;;;;;5.93;4.63;;;32.30;95.50;;;;;;5088935;28;20284;-51
2022/06/30 13:04:25;;;;;;;5.88;4.70;;;32.20;94.40;;;;;;5077957;28;20211;-51
2022/06/30 13:06:57;;;;;;;6.40;4.85;;;32.10;92.70;;;;;;5089191;28;20307;-51
2022/06/30 13:09:27;;;;;;;6.40;5.05;;;32.10;93.40;;;;;;5078100;28;20627;-51